createdAt,value
2023-06-21T00:01:41.005Z,15.30
2023-06-21T00:03:43.779Z,15.57
2023-06-21T00:05:46.642Z,14.88
2023-06-21T00:07:54.077Z,14.27
2023-06-21T00:09:56.961Z,17.52
2023-06-21T00:11:59.700Z,15.93
2023-06-21T00:14:03.607Z,17.55
2023-06-21T00:16:06.311Z,16.10
2023-06-21T00:18:09.087Z,15.00
2023-06-21T00:22:23.155Z,21.17
2023-06-21T00:24:27.416Z,18.13
2023-06-21T00:26:30.162Z,16.60
2023-06-21T00:28:32.786Z,15.73
2023-06-21T00:30:35.451Z,18.73
2023-06-21T00:32:39.446Z,14.98
2023-06-21T00:34:42.156Z,12.10
2023-06-21T00:36:44.799Z,17.83
2023-06-21T00:38:47.602Z,15.15
2023-06-21T00:40:53.877Z,15.38
2023-06-21T00:42:56.654Z,20.23
2023-06-21T00:44:59.312Z,18.08
2023-06-21T00:47:03.712Z,14.00
2023-06-21T00:49:06.924Z,16.80
2023-06-21T00:51:14.330Z,17.23
2023-06-21T00:53:17.491Z,13.55
2023-06-21T00:55:20.717Z,16.42
2023-06-21T00:57:25.011Z,16.80
2023-06-21T00:59:28.569Z,20.25
2023-06-21T01:01:32.158Z,16.08
2023-06-21T01:03:35.308Z,13.93
2023-06-21T01:05:39.696Z,18.38
2023-06-21T01:07:46.820Z,18.23
2023-06-21T01:10:01.127Z,15.88
2023-06-21T01:12:13.146Z,13.98
2023-06-21T01:14:33.192Z,18.27
2023-06-21T01:16:39.598Z,16.55
2023-06-21T01:18:46.328Z,18.67
2023-06-21T01:20:54.617Z,18.98
2023-06-21T01:23:17.114Z,15.77
2023-06-21T01:25:30.028Z,11.88
2023-06-21T01:27:44.336Z,18.90
2023-06-21T01:29:50.281Z,17.67
2023-06-21T01:31:57.492Z,17.27
2023-06-21T01:34:01.980Z,18.73
2023-06-21T01:36:05.806Z,17.48
2023-06-21T01:38:08.682Z,21.20
2023-06-21T01:40:12.778Z,17.00
2023-06-21T01:42:15.912Z,15.68
2023-06-21T01:44:18.921Z,16.33
2023-06-21T01:46:26.947Z,13.45
2023-06-21T01:48:31.811Z,19.92
2023-06-21T01:50:36.309Z,16.90
2023-06-21T01:52:40.023Z,16.65
2023-06-21T01:54:43.747Z,13.88
2023-06-21T01:56:48.919Z,18.35
2023-06-21T01:58:51.753Z,15.30
2023-06-21T02:00:55.827Z,18.15
2023-06-21T02:03:06.909Z,17.35
2023-06-21T02:05:10.080Z,14.32
2023-06-21T02:07:15.089Z,20.38
2023-06-21T02:09:20.429Z,15.73
2023-06-21T02:11:23.386Z,18.65
2023-06-21T02:13:27.434Z,15.57
2023-06-21T02:15:30.180Z,19.65
2023-06-21T02:17:32.883Z,14.50
2023-06-21T02:19:38.414Z,21.58
2023-06-21T02:21:41.025Z,11.90
2023-06-21T02:23:43.927Z,19.38
2023-06-21T02:28:08.319Z,15.63
2023-06-21T02:30:11.930Z,16.77
2023-06-21T02:32:14.598Z,20.35
2023-06-21T02:34:17.248Z,18.30
2023-06-21T02:36:20.902Z,17.58
2023-06-21T02:38:25.408Z,15.45
2023-06-21T02:40:28.326Z,19.05
2023-06-21T02:42:31.261Z,12.70
2023-06-21T02:44:35.267Z,20.42
2023-06-21T02:46:38.048Z,15.73
2023-06-21T02:48:40.743Z,13.98
2023-06-21T02:50:43.436Z,13.38
2023-06-21T02:54:56.598Z,15.85
2023-06-21T02:56:59.306Z,19.73
2023-06-21T02:59:01.980Z,18.38
2023-06-21T03:01:06.077Z,21.23
2023-06-21T03:03:09.173Z,16.70
2023-06-21T03:05:12.881Z,17.02
2023-06-21T03:07:15.513Z,16.67
2023-06-21T03:09:18.194Z,12.90
2023-06-21T03:11:20.858Z,20.58
2023-06-21T03:13:23.518Z,11.63
2023-06-21T03:15:26.475Z,17.63
2023-06-21T03:17:31.603Z,14.77
2023-06-21T03:19:36.253Z,13.95
2023-06-21T03:21:38.969Z,20.58
2023-06-21T03:23:41.624Z,19.17
2023-06-21T03:27:54.659Z,18.48
2023-06-21T03:29:57.452Z,17.13
2023-06-21T03:32:01.947Z,20.08
2023-06-21T03:34:05.998Z,23.92
2023-06-21T03:36:08.772Z,24.48
2023-06-21T03:38:14.273Z,20.23
2023-06-21T03:40:17.283Z,16.85
2023-06-21T03:42:20.098Z,22.42
2023-06-21T03:44:25.481Z,18.58
2023-06-21T03:46:31.215Z,19.13
2023-06-21T03:48:33.891Z,21.15
2023-06-21T03:53:08.497Z,15.82
2023-06-21T03:55:11.693Z,17.50
2023-06-21T03:57:14.600Z,17.75
2023-06-21T03:59:17.251Z,21.77
2023-06-21T04:01:20.060Z,21.02
2023-06-21T04:03:22.815Z,21.40
2023-06-21T04:05:25.732Z,18.73
2023-06-21T04:07:39.060Z,16.92
2023-06-21T04:09:41.706Z,16.52
2023-06-21T04:11:44.321Z,15.77
2023-06-21T04:13:47.746Z,14.55
2023-06-21T04:15:52.222Z,16.17
2023-06-21T04:17:54.904Z,20.17
2023-06-21T04:19:57.733Z,20.60
2023-06-21T04:22:00.389Z,22.27
2023-06-21T04:24:04.968Z,22.83
2023-06-21T04:26:10.800Z,16.83
2023-06-21T04:28:13.504Z,18.23
2023-06-21T04:30:16.248Z,18.58
2023-06-21T04:32:19.535Z,18.25
2023-06-21T04:34:22.599Z,19.90
2023-06-21T04:36:25.982Z,17.88
2023-06-21T04:38:28.608Z,18.48
2023-06-21T04:40:55.097Z,19.90
2023-06-21T04:45:19.190Z,23.92
2023-06-21T04:47:22.804Z,21.73
2023-06-21T04:49:28.343Z,19.85
2023-06-21T04:54:13.591Z,20.58
2023-06-21T04:56:20.044Z,25.42
2023-06-21T04:58:26.537Z,18.33
2023-06-21T05:00:35.451Z,22.63
2023-06-21T05:02:38.631Z,22.40
2023-06-21T05:04:43.466Z,23.88
2023-06-21T05:06:46.284Z,17.98
2023-06-21T05:08:49.432Z,18.58
2023-06-21T05:10:54.618Z,20.88
2023-06-21T05:13:28.197Z,18.15
2023-06-21T05:15:33.788Z,20.45
2023-06-21T05:17:37.354Z,21.60
2023-06-21T05:19:43.838Z,20.23
2023-06-21T05:21:47.467Z,25.20
2023-06-21T05:23:50.202Z,16.67
2023-06-21T05:25:54.178Z,25.85
2023-06-21T05:27:57.081Z,15.95
2023-06-21T05:30:00.093Z,18.92
2023-06-21T05:32:05.646Z,24.08
2023-06-21T05:34:46.519Z,18.95
2023-06-21T05:36:49.324Z,23.35
2023-06-21T05:39:10.446Z,18.98
2023-06-21T05:41:13.400Z,23.45
2023-06-21T05:43:16.235Z,16.60
2023-06-21T05:45:21.254Z,24.23
2023-06-21T05:47:25.784Z,19.10
2023-06-21T05:49:28.623Z,16.67
2023-06-21T05:51:31.753Z,19.58
2023-06-21T05:53:34.752Z,18.75
2023-06-21T05:55:41.741Z,20.67
2023-06-21T05:57:44.528Z,16.63
2023-06-21T05:59:47.783Z,21.85
2023-06-21T06:01:51.749Z,22.95
2023-06-21T06:06:07.819Z,20.83
2023-06-21T06:10:48.794Z,19.73
2023-06-21T06:13:00.252Z,17.95
2023-06-21T06:15:03.069Z,17.77
2023-06-21T06:17:06.103Z,18.27
2023-06-21T06:19:14.545Z,22.08
2023-06-21T06:21:22.521Z,18.05
2023-06-21T06:25:59.414Z,20.40
2023-06-21T06:28:04.245Z,22.38
2023-06-21T06:30:08.402Z,21.63
2023-06-21T06:32:11.312Z,20.70
2023-06-21T06:34:14.241Z,20.73
2023-06-21T06:36:18.722Z,20.02
2023-06-21T06:38:21.406Z,19.33
2023-06-21T06:40:25.481Z,19.23
2023-06-21T06:42:28.262Z,21.38
2023-06-21T06:44:31.056Z,21.90
2023-06-21T06:46:36.661Z,16.77
2023-06-21T06:49:14.552Z,17.30
2023-06-21T06:51:19.027Z,21.70
2023-06-21T06:53:21.734Z,17.77
2023-06-21T06:55:26.549Z,21.65
2023-06-21T06:57:36.698Z,18.42
2023-06-21T06:59:53.176Z,17.85
2023-06-21T07:01:56.081Z,18.75
2023-06-21T07:03:58.901Z,17.80
2023-06-21T07:06:01.943Z,23.23
2023-06-21T07:08:06.390Z,23.60
2023-06-21T07:10:11.160Z,16.38
2023-06-21T07:12:13.987Z,17.80
2023-06-21T07:14:16.875Z,16.90
2023-06-21T07:16:19.539Z,17.88
2023-06-21T07:18:22.331Z,17.17
2023-06-21T07:20:25.157Z,19.98
2023-06-21T07:22:28.081Z,16.10
2023-06-21T07:26:49.892Z,19.20
2023-06-21T07:28:53.095Z,18.63
2023-06-21T07:30:55.868Z,14.52
2023-06-21T07:32:58.826Z,15.80
2023-06-21T07:35:01.680Z,19.98
2023-06-21T07:37:04.906Z,17.02
2023-06-21T07:39:08.104Z,16.30
2023-06-21T07:41:14.147Z,19.23
2023-06-21T07:43:17.354Z,18.25
2023-06-21T07:45:20.331Z,20.08
2023-06-21T07:47:24.114Z,18.70
2023-06-21T07:49:27.453Z,19.92
2023-06-21T07:53:51.482Z,20.45
2023-06-21T07:55:54.436Z,13.95
2023-06-21T07:57:58.711Z,16.80
2023-06-21T08:00:09.846Z,12.52
2023-06-21T08:02:14.831Z,15.68
2023-06-21T08:04:17.899Z,19.45
2023-06-21T08:06:20.837Z,14.20
2023-06-21T08:08:24.828Z,19.23
2023-06-21T08:10:27.517Z,18.73
2023-06-21T08:12:30.245Z,20.10
2023-06-21T08:14:34.418Z,15.93
2023-06-21T08:16:38.525Z,20.73
2023-06-21T08:18:41.392Z,17.85
2023-06-21T08:20:44.200Z,20.02
2023-06-21T08:22:47.044Z,17.98
2023-06-21T08:24:50.128Z,17.70
2023-06-21T08:26:53.271Z,18.55
2023-06-21T08:28:55.994Z,19.45
2023-06-21T08:31:00.150Z,17.10
2023-06-21T08:33:03.236Z,18.20
2023-06-21T08:35:07.230Z,14.23
2023-06-21T08:37:09.962Z,15.07
2023-06-21T08:39:12.985Z,16.15
2023-06-21T08:41:17.476Z,20.02
2023-06-21T08:43:20.491Z,20.08
2023-06-21T08:47:43.893Z,21.90
2023-06-21T08:49:50.721Z,23.45
2023-06-21T08:51:55.731Z,25.55
2023-06-21T08:54:03.042Z,52.33
2023-06-21T08:56:09.297Z,55.13
2023-06-21T08:58:18.100Z,70.65
2023-06-21T09:02:44.853Z,82.20
2023-06-21T09:04:52.249Z,82.45
2023-06-21T09:07:00.612Z,81.93
2023-06-21T09:09:03.390Z,77.47
2023-06-21T09:11:07.875Z,85.93
2023-06-21T09:13:14.047Z,91.72
2023-06-21T09:17:37.834Z,96.22
2023-06-21T09:19:44.505Z,73.88
2023-06-21T09:21:49.984Z,92.57
2023-06-21T09:23:57.114Z,82.25
2023-06-21T09:25:59.968Z,82.82
2023-06-21T09:28:02.891Z,76.10
2023-06-21T09:30:29.583Z,77.78
2023-06-21T09:34:51.759Z,68.53
2023-06-21T09:36:59.281Z,62.35
2023-06-21T09:41:26.947Z,46.38
2023-06-21T09:43:29.773Z,40.72
2023-06-21T09:45:33.569Z,42.30
2023-06-21T09:47:36.373Z,33.92
2023-06-21T09:49:47.422Z,37.28
2023-06-21T09:51:54.926Z,41.17
2023-06-21T09:53:57.856Z,33.80
2023-06-21T09:56:02.180Z,33.03
2023-06-21T09:58:08.424Z,28.90
2023-06-21T10:00:20.391Z,26.50
2023-06-21T10:02:23.615Z,24.48
2023-06-21T10:04:27.345Z,26.73
2023-06-21T10:06:32.777Z,17.23
2023-06-21T10:08:39.798Z,27.77
2023-06-21T10:10:42.511Z,21.17
2023-06-21T10:12:55.759Z,17.90
2023-06-21T10:17:14.446Z,20.55
2023-06-21T10:19:21.777Z,18.30
2023-06-21T10:21:24.996Z,20.52
2023-06-21T10:23:31.448Z,22.27
2023-06-21T10:25:58.597Z,17.33
2023-06-21T10:28:03.488Z,18.35
2023-06-21T10:32:18.410Z,25.60
2023-06-21T10:34:23.366Z,21.77
2023-06-21T10:36:34.041Z,25.27
2023-06-21T10:38:41.303Z,23.97
2023-06-21T10:40:45.448Z,22.75
2023-06-21T10:42:53.275Z,20.30
2023-06-21T10:47:16.937Z,21.02
2023-06-21T10:49:21.054Z,23.50
2023-06-21T10:51:26.395Z,28.13
2023-06-21T10:53:31.874Z,17.95
2023-06-21T10:57:11.326Z,15.48
2023-06-21T10:59:15.049Z,22.75
2023-06-21T11:01:18.247Z,22.55
2023-06-21T11:03:26.961Z,21.83
2023-06-21T11:05:30.170Z,24.35
2023-06-21T11:07:32.949Z,16.10
2023-06-21T11:09:39.130Z,20.40
2023-06-21T11:14:12.488Z,19.70
2023-06-21T11:16:18.198Z,24.38
2023-06-21T11:18:21.919Z,17.67
2023-06-21T11:20:27.040Z,21.50
2023-06-21T11:22:30.026Z,20.50
2023-06-21T11:24:33.881Z,15.55
2023-06-21T11:29:16.520Z,15.23
2023-06-21T11:31:24.941Z,17.58
2023-06-21T11:33:30.883Z,17.30
2023-06-21T11:35:39.258Z,19.90
2023-06-21T11:37:46.081Z,20.65
2023-06-21T11:40:01.063Z,16.05
2023-06-21T11:42:06.049Z,11.80
2023-06-21T11:44:13.603Z,10.55
2023-06-21T11:46:28.057Z,11.23
2023-06-21T11:48:35.810Z,12.38
2023-06-21T11:53:24.075Z,13.15
2023-06-21T11:55:26.920Z,14.68
2023-06-21T11:57:29.565Z,13.90
2023-06-21T11:59:33.953Z,11.88
2023-06-21T12:01:39.416Z,10.90
2023-06-21T12:03:43.776Z,9.00
2023-06-21T12:08:00.816Z,12.88
2023-06-21T12:10:06.737Z,10.02
2023-06-21T12:12:11.747Z,13.65
2023-06-21T12:14:14.547Z,9.68
2023-06-21T12:16:17.290Z,9.00
2023-06-21T12:18:20.465Z,10.82
2023-06-21T12:20:24.994Z,10.60
2023-06-21T12:22:27.624Z,9.57
2023-06-21T12:24:31.337Z,14.02
2023-06-21T12:28:51.361Z,9.63
2023-06-21T12:30:58.161Z,9.13
2023-06-21T12:33:01.135Z,9.50
2023-06-21T12:35:04.797Z,7.95
2023-06-21T12:37:08.956Z,8.50
2023-06-21T12:39:13.843Z,8.88
2023-06-21T12:41:18.544Z,10.45
2023-06-21T12:43:33.897Z,10.50
2023-06-21T12:45:36.628Z,8.98
2023-06-21T12:49:59.887Z,7.80
2023-06-21T12:52:03.865Z,8.43
2023-06-21T12:54:14.464Z,7.82
2023-06-21T12:56:18.110Z,10.60
2023-06-21T12:58:21.905Z,7.00
2023-06-21T13:00:25.847Z,8.82
2023-06-21T13:02:28.866Z,7.95
2023-06-21T13:04:31.887Z,7.50
2023-06-21T13:06:36.070Z,6.47
2023-06-21T13:09:03.250Z,5.65
2023-06-21T13:11:09.144Z,7.68
2023-06-21T13:13:11.889Z,9.25
2023-06-21T13:15:15.705Z,8.52
2023-06-21T13:17:19.242Z,6.90
2023-06-21T13:19:21.993Z,11.55
2023-06-21T13:21:25.958Z,7.50
2023-06-21T13:25:51.785Z,8.38
2023-06-21T13:27:55.948Z,6.22
2023-06-21T13:29:59.095Z,7.63
2023-06-21T13:32:02.251Z,8.13
2023-06-21T13:34:05.055Z,7.35
2023-06-21T13:36:31.921Z,7.72
2023-06-21T13:38:43.306Z,6.50
2023-06-21T13:40:47.209Z,7.75
2023-06-21T13:45:13.338Z,9.23
2023-06-21T13:47:16.041Z,10.60
2023-06-21T13:49:19.864Z,8.73
2023-06-21T13:51:24.685Z,7.57
2023-06-21T13:54:13.855Z,8.15
2023-06-21T13:56:16.903Z,12.07
2023-06-21T13:58:19.636Z,8.18
2023-06-21T14:00:26.767Z,8.27
2023-06-21T14:06:57.213Z,8.02
2023-06-21T14:09:00.105Z,8.38
2023-06-21T14:11:03.048Z,10.15
2023-06-21T14:13:05.846Z,8.15
2023-06-21T14:15:10.437Z,6.90
2023-06-21T14:17:14.708Z,6.68
2023-06-21T14:19:17.533Z,7.30
2023-06-21T14:21:20.428Z,5.88
2023-06-21T14:23:30.718Z,8.18
2023-06-21T14:25:34.420Z,6.63
2023-06-21T14:27:37.151Z,6.10
2023-06-21T14:32:02.469Z,9.82
2023-06-21T14:34:06.740Z,8.32
2023-06-21T14:36:32.836Z,8.85
2023-06-21T14:39:01.614Z,9.95
2023-06-21T14:41:05.502Z,6.72
2023-06-21T14:43:08.264Z,8.15
2023-06-21T14:45:12.392Z,6.97
2023-06-21T14:49:51.026Z,7.95
2023-06-21T14:51:54.048Z,6.20
2023-06-21T14:53:58.617Z,9.40
2023-06-21T14:56:01.444Z,9.45
2023-06-21T14:58:04.155Z,8.02
2023-06-21T15:00:08.532Z,8.20
2023-06-21T15:02:12.114Z,8.27
2023-06-21T15:04:14.962Z,5.50
2023-06-21T15:06:20.552Z,6.07
2023-06-21T15:09:10.559Z,9.05
2023-06-21T15:11:23.888Z,7.97
2023-06-21T15:15:36.271Z,6.75
2023-06-21T15:17:39.846Z,7.90
2023-06-21T15:19:44.080Z,10.50
2023-06-21T15:21:48.713Z,7.43
2023-06-21T15:23:51.425Z,5.97
2023-06-21T15:25:54.071Z,8.13
2023-06-21T15:27:56.796Z,6.80
2023-06-21T15:29:59.738Z,7.30
2023-06-21T15:34:17.361Z,7.07
2023-06-21T15:36:20.291Z,9.40
2023-06-21T15:40:40.155Z,7.93
2023-06-21T15:42:42.843Z,9.70
2023-06-21T15:44:45.915Z,9.05
2023-06-21T15:46:49.076Z,7.55
2023-06-21T15:48:51.896Z,9.40
2023-06-21T15:50:54.561Z,8.38
2023-06-21T15:53:00.199Z,7.85
2023-06-21T15:55:14.755Z,7.80
2023-06-21T15:57:19.393Z,7.80
2023-06-21T15:59:31.269Z,10.82
2023-06-21T16:01:33.982Z,9.02
2023-06-21T16:03:40.069Z,8.10
2023-06-21T16:05:42.917Z,8.73
2023-06-21T16:07:45.584Z,8.45
2023-06-21T16:09:48.369Z,7.25
2023-06-21T16:11:51.284Z,11.38
2023-06-21T16:13:55.316Z,6.60
2023-06-21T16:15:58.410Z,10.50
2023-06-21T16:18:01.508Z,8.55
2023-06-21T16:20:04.589Z,9.32
2023-06-21T16:22:07.343Z,7.90
2023-06-21T16:24:12.888Z,9.23
2023-06-21T16:28:26.233Z,7.38
2023-06-21T16:30:30.279Z,9.13
2023-06-21T16:32:32.940Z,7.30
2023-06-21T16:34:35.650Z,7.85
2023-06-21T16:36:38.681Z,9.10
2023-06-21T16:38:41.306Z,7.82
2023-06-21T16:40:44.030Z,8.75
2023-06-21T16:42:47.675Z,5.88
2023-06-21T16:44:50.324Z,6.28
2023-06-21T16:46:54.327Z,7.25
2023-06-21T16:48:57.003Z,12.18
2023-06-21T16:50:59.587Z,8.23
2023-06-21T16:53:02.354Z,11.48
2023-06-21T16:55:06.181Z,10.65
2023-06-21T16:57:17.278Z,9.82
2023-06-21T16:59:21.145Z,9.15
2023-06-21T17:01:24.309Z,7.30
2023-06-21T17:03:28.484Z,8.43
2023-06-21T17:05:31.741Z,7.68
2023-06-21T17:07:34.777Z,6.55
2023-06-21T17:09:37.541Z,9.27
2023-06-21T17:11:40.172Z,5.63
2023-06-21T17:13:42.828Z,6.05
2023-06-21T17:15:45.480Z,7.50
2023-06-21T17:17:48.186Z,6.35
2023-06-21T17:19:52.303Z,7.65
2023-06-21T17:21:56.112Z,11.52
2023-06-21T17:24:00.895Z,7.60
2023-06-21T17:26:05.377Z,10.93
2023-06-21T17:28:07.989Z,7.13
2023-06-21T17:30:12.095Z,8.60
2023-06-21T17:32:15.108Z,9.05
2023-06-21T17:34:17.967Z,8.30
2023-06-21T17:36:22.034Z,8.07
2023-06-21T17:38:24.740Z,9.60
2023-06-21T17:40:27.383Z,9.88
2023-06-21T17:42:30.041Z,9.40
2023-06-21T17:44:32.788Z,11.30
2023-06-21T17:46:35.407Z,7.75
2023-06-21T17:48:39.644Z,8.35
2023-06-21T17:50:42.435Z,9.77
2023-06-21T17:52:46.437Z,8.55
2023-06-21T17:54:49.128Z,8.50
2023-06-21T17:56:51.799Z,11.05
2023-06-21T17:58:55.079Z,9.35
2023-06-21T18:00:57.882Z,9.77
2023-06-21T18:03:00.654Z,8.70
2023-06-21T18:05:04.161Z,9.60
2023-06-21T18:07:07.304Z,11.48
2023-06-21T18:09:12.069Z,9.07
2023-06-21T18:11:14.856Z,9.57
2023-06-21T18:13:17.921Z,7.38
2023-06-21T18:15:20.620Z,9.70
2023-06-21T18:17:23.381Z,8.90
2023-06-21T18:19:26.142Z,266.08
2023-06-21T18:21:30.083Z,299.42
2023-06-21T18:23:32.719Z,158.02
2023-06-21T18:25:38.273Z,80.10
2023-06-21T18:27:41.490Z,26.30
2023-06-21T18:29:57.556Z,11.38
2023-06-21T18:34:30.764Z,13.40
2023-06-21T18:36:34.265Z,12.20
2023-06-21T18:38:38.237Z,17.50
2023-06-21T18:41:06.986Z,15.75
2023-06-21T18:43:11.048Z,19.42
2023-06-21T18:45:14.043Z,13.27
2023-06-21T18:47:16.816Z,11.45
2023-06-21T18:49:21.332Z,18.60
2023-06-21T18:51:26.628Z,38.45
2023-06-21T18:53:30.312Z,19.27
2023-06-21T18:55:33.937Z,18.20
2023-06-21T18:57:36.951Z,20.75
2023-06-21T18:59:43.083Z,151.73
2023-06-21T19:02:18.007Z,292.67
2023-06-21T19:04:25.298Z,350.48
2023-06-21T19:06:28.515Z,160.18
2023-06-21T19:08:31.364Z,97.90
2023-06-21T19:10:34.441Z,75.38
2023-06-21T19:12:38.059Z,84.65
2023-06-21T19:14:43.323Z,51.05
2023-06-21T19:19:01.530Z,36.15
2023-06-21T19:21:04.405Z,73.13
2023-06-21T19:23:07.165Z,111.30
2023-06-21T19:25:10.612Z,98.57
2023-06-21T19:27:14.056Z,61.70
2023-06-21T19:29:18.410Z,28.90
2023-06-21T19:31:29.987Z,19.77
2023-06-21T19:33:32.826Z,20.13
2023-06-21T19:35:35.602Z,18.73
2023-06-21T19:37:38.249Z,16.17
2023-06-21T19:39:40.894Z,12.85
2023-06-21T19:41:43.687Z,9.20
2023-06-21T19:43:46.375Z,8.65
2023-06-21T19:45:49.039Z,10.75
2023-06-21T19:47:53.414Z,12.52
2023-06-21T19:49:56.280Z,14.40
2023-06-21T19:51:59.080Z,10.90
2023-06-21T19:54:02.647Z,14.65
2023-06-21T19:56:05.350Z,13.52
2023-06-21T19:58:08.078Z,13.48
2023-06-21T20:00:13.088Z,11.57
2023-06-21T20:02:16.343Z,10.27
2023-06-21T20:08:53.348Z,11.98
2023-06-21T20:10:56.021Z,11.25
2023-06-21T20:12:58.678Z,14.80
2023-06-21T20:15:01.335Z,12.07
2023-06-21T20:17:04.144Z,14.77
2023-06-21T20:19:06.857Z,13.50
2023-06-21T20:21:10.038Z,16.23
2023-06-21T20:23:14.357Z,12.85
2023-06-21T20:25:30.014Z,19.70
2023-06-21T20:27:33.976Z,12.40
2023-06-21T20:29:36.956Z,13.07
2023-06-21T20:33:48.353Z,11.93
2023-06-21T20:35:52.301Z,14.73
2023-06-21T20:37:55.305Z,13.65
2023-06-21T20:39:58.372Z,10.50
2023-06-21T20:42:01.272Z,12.57
2023-06-21T20:44:05.453Z,10.07
2023-06-21T20:46:09.668Z,11.20
2023-06-21T20:48:12.404Z,10.02
2023-06-21T20:50:15.884Z,9.57
2023-06-21T20:52:20.973Z,12.02
2023-06-21T20:54:24.605Z,10.13
2023-06-21T20:56:27.751Z,12.00
2023-06-21T20:58:31.105Z,11.00
2023-06-21T21:00:35.742Z,10.60
2023-06-21T21:02:38.756Z,10.88
2023-06-21T21:04:42.005Z,10.52
2023-06-21T21:06:44.813Z,10.20
2023-06-21T21:08:47.867Z,12.73
2023-06-21T21:10:50.664Z,9.48
2023-06-21T21:12:53.403Z,12.30
2023-06-21T21:14:56.209Z,14.30
2023-06-21T21:17:00.394Z,11.05
2023-06-21T21:19:03.114Z,13.23
2023-06-21T21:21:52.726Z,15.27
2023-06-21T21:24:38.853Z,8.18
2023-06-21T21:26:41.504Z,10.43
2023-06-21T21:28:44.988Z,12.10
2023-06-21T21:30:48.708Z,13.27
2023-06-21T21:32:51.506Z,12.18
2023-06-21T21:34:54.207Z,11.35
2023-06-21T21:36:58.964Z,11.68
2023-06-21T21:39:01.638Z,12.18
2023-06-21T21:41:05.059Z,9.60
2023-06-21T21:43:07.729Z,10.95
2023-06-21T21:45:10.960Z,14.18
2023-06-21T21:47:13.638Z,9.07
2023-06-21T21:49:16.715Z,12.10
2023-06-21T21:51:19.414Z,9.88
2023-06-21T21:53:23.406Z,11.02
2023-06-21T21:57:33.873Z,15.75
2023-06-21T21:59:36.579Z,14.35
2023-06-21T22:01:39.241Z,12.88
2023-06-21T22:03:42.141Z,16.20
2023-06-21T22:05:44.865Z,10.77
2023-06-21T22:07:47.511Z,11.50
2023-06-21T22:09:51.483Z,10.15
2023-06-21T22:11:54.626Z,10.45
2023-06-21T22:13:58.018Z,8.68
2023-06-21T22:16:26.987Z,10.00
2023-06-21T22:18:31.048Z,12.27
2023-06-21T22:20:38.470Z,13.40
2023-06-21T22:22:44.272Z,12.88
2023-06-21T22:24:47.188Z,12.15
2023-06-21T22:26:52.370Z,13.50
2023-06-21T22:28:55.078Z,9.93
2023-06-21T22:30:58.713Z,11.77
2023-06-21T22:33:01.434Z,12.27
2023-06-21T22:35:04.303Z,11.07
2023-06-21T22:37:08.241Z,12.48
2023-06-21T22:39:12.477Z,12.75
2023-06-21T22:41:17.874Z,10.65
2023-06-21T22:43:21.999Z,13.65
2023-06-21T22:45:25.308Z,10.05
2023-06-21T22:47:27.943Z,11.70
2023-06-21T22:49:30.953Z,12.68
2023-06-21T22:51:36.177Z,10.88
2023-06-21T22:53:39.091Z,10.43
2023-06-21T22:55:42.955Z,11.57
2023-06-21T22:57:45.714Z,13.45
2023-06-21T22:59:50.066Z,12.13
2023-06-21T23:01:54.070Z,13.45
2023-06-21T23:03:57.016Z,10.65
2023-06-21T23:05:59.802Z,12.75
2023-06-21T23:08:03.039Z,10.40
2023-06-21T23:12:15.708Z,15.60
2023-06-21T23:14:40.314Z,14.27
2023-06-21T23:16:44.518Z,14.25
2023-06-21T23:21:42.192Z,13.15
2023-06-21T23:23:57.348Z,10.10
2023-06-21T23:26:03.554Z,12.68
2023-06-21T23:28:09.554Z,13.55
2023-06-21T23:30:30.711Z,13.27
2023-06-21T23:32:40.526Z,10.48
2023-06-21T23:34:46.141Z,10.82
2023-06-21T23:37:13.978Z,12.52
2023-06-21T23:39:16.681Z,9.20
2023-06-21T23:41:19.606Z,13.25
2023-06-21T23:43:23.517Z,11.32
2023-06-21T23:45:26.361Z,11.48
2023-06-21T23:47:29.169Z,13.30
2023-06-21T23:49:38.746Z,12.82
2023-06-21T23:52:10.638Z,11.98
2023-06-21T23:56:16.643Z,11.57
2023-06-21T23:58:21.917Z,12.00
